BAW387 EBBR-EGLL
Flight info
| Callsign | BAW387 |
|---|---|
| Flight time | 0h 45m |
| Altitude | 24000 |
| Route | DCT HELEN L179 COA L608 LOGAN LOGAN2H |
| Aircraft | A319/M-SDE3FGIJ1KRWXY/LB1 |
Departure
| Time | 2026-05-06 16:57 |
|---|---|
| Airport | Brussels Airport (EBBR) |
Arrival
| Time | 2026-05-06 17:42 |
|---|---|
| Airport | London Heathrow Airport (EGLL) |
| Time | Latitude | Longitude | Altitude | Speed | Heading |
|---|---|---|---|---|---|
| 2026-05-06 16:26 | 50.90449 | 4.48732 | 135 ft | 0 kts | 155° |
| 2026-05-06 16:48 | 50.90464 | 4.48721 | 134 ft | 4 kts | 154° |
| 2026-05-06 16:48 | 50.90488 | 4.48701 | 134 ft | 4 kts | 149° |
| 2026-05-06 16:48 | 50.90508 | 4.48680 | 134 ft | 4 kts | 135° |
| 2026-05-06 16:49 | 50.90519 | 4.48660 | 134 ft | 4 kts | 107° |
| 2026-05-06 16:49 | 50.90516 | 4.48629 | 135 ft | 4 kts | 62° |
| 2026-05-06 16:49 | 50.90513 | 4.48620 | 135 ft | 0 kts | 61° |
| 2026-05-06 16:52 | 50.90514 | 4.48621 | 135 ft | 1 kts | 61° |
| 2026-05-06 16:52 | 50.90532 | 4.48675 | 133 ft | 10 kts | 63° |
| 2026-05-06 16:52 | 50.90575 | 4.48823 | 129 ft | 19 kts | 66° |
| 2026-05-06 16:52 | 50.90630 | 4.49016 | 127 ft | 16 kts | 65° |
| 2026-05-06 16:53 | 50.90725 | 4.49112 | 126 ft | 16 kts | 24° |
| 2026-05-06 16:53 | 50.90784 | 4.49278 | 131 ft | 21 kts | 64° |
| 2026-05-06 16:53 | 50.90829 | 4.49430 | 130 ft | 3 kts | 65° |
| 2026-05-06 16:53 | 50.90845 | 4.49485 | 130 ft | 0 kts | 65° |
| 2026-05-06 16:54 | 50.90853 | 4.49512 | 130 ft | 6 kts | 65° |
| 2026-05-06 16:54 | 50.90879 | 4.49603 | 128 ft | 13 kts | 65° |
| 2026-05-06 16:54 | 50.90910 | 4.49707 | 125 ft | 11 kts | 65° |
| 2026-05-06 16:54 | 50.90943 | 4.49807 | 122 ft | 11 kts | 52° |
| 2026-05-06 16:55 | 50.90985 | 4.49865 | 126 ft | 8 kts | 37° |
| 2026-05-06 16:55 | 50.91035 | 4.49904 | 121 ft | 0 kts | 22° |
| 2026-05-06 16:56 | 50.91067 | 4.49924 | 121 ft | 10 kts | 22° |
| 2026-05-06 16:56 | 50.91140 | 4.49891 | 122 ft | 14 kts | 285° |
| 2026-05-06 16:56 | 50.91131 | 4.49852 | 124 ft | 2 kts | 240° |
| 2026-05-06 16:56 | 50.91061 | 4.49613 | 128 ft | 58 kts | 245° |
| 2026-05-06 16:57 | 50.90797 | 4.48696 | 135 ft | 122 kts | 246° |
| 2026-05-06 16:57 | 50.90392 | 4.47272 | 219 ft | 165 kts | 249° |
| 2026-05-06 16:57 | 50.89922 | 4.45663 | 873 ft | 160 kts | 250° |
| 2026-05-06 16:57 | 50.89642 | 4.43965 | 1489 ft | 160 kts | 268° |
| 2026-05-06 16:58 | 50.89643 | 4.42147 | 1938 ft | 174 kts | 282° |
| 2026-05-06 16:58 | 50.89966 | 4.40190 | 2380 ft | 194 kts | 297° |
| 2026-05-06 16:58 | 50.90694 | 4.38279 | 2764 ft | 214 kts | 314° |
| 2026-05-06 16:58 | 50.91872 | 4.36669 | 3225 ft | 235 kts | 333° |
| 2026-05-06 16:59 | 50.93384 | 4.35414 | 3856 ft | 255 kts | 331° |
| 2026-05-06 16:59 | 50.94811 | 4.33653 | 4835 ft | 265 kts | 317° |
| 2026-05-06 16:59 | 50.95990 | 4.31357 | 5836 ft | 272 kts | 308° |
| 2026-05-06 16:59 | 50.97148 | 4.28956 | 6812 ft | 276 kts | 313° |
| 2026-05-06 17:00 | 50.98503 | 4.26779 | 7780 ft | 279 kts | 316° |
| 2026-05-06 17:00 | 50.99887 | 4.24597 | 8775 ft | 282 kts | 316° |
| 2026-05-06 17:00 | 51.01291 | 4.22386 | 9760 ft | 286 kts | 315° |
| 2026-05-06 17:00 | 51.02717 | 4.20139 | 10636 ft | 291 kts | 316° |
| 2026-05-06 17:01 | 51.04204 | 4.17791 | 11091 ft | 313 kts | 316° |
| 2026-05-06 17:01 | 51.05807 | 4.15259 | 11454 ft | 334 kts | 316° |
| 2026-05-06 17:01 | 51.07477 | 4.12618 | 12121 ft | 343 kts | 316° |
| 2026-05-06 17:01 | 51.09180 | 4.09911 | 12861 ft | 350 kts | 316° |
| 2026-05-06 17:02 | 51.10914 | 4.07146 | 13614 ft | 356 kts | 317° |
| 2026-05-06 17:02 | 51.12650 | 4.04298 | 14299 ft | 361 kts | 311° |
| 2026-05-06 17:02 | 51.13964 | 4.00879 | 14997 ft | 365 kts | 295° |
| 2026-05-06 17:02 | 51.15024 | 3.97169 | 15660 ft | 371 kts | 294° |
| 2026-05-06 17:03 | 51.16085 | 3.93388 | 16309 ft | 376 kts | 293° |
| 2026-05-06 17:03 | 51.17149 | 3.89553 | 16996 ft | 381 kts | 293° |
| 2026-05-06 17:03 | 51.18222 | 3.85672 | 17696 ft | 384 kts | 292° |
| 2026-05-06 17:03 | 51.19285 | 3.81816 | 18401 ft | 387 kts | 292° |
| 2026-05-06 17:04 | 51.20370 | 3.77874 | 19074 ft | 389 kts | 292° |
| 2026-05-06 17:04 | 51.21464 | 3.73909 | 19673 ft | 393 kts | 292° |
| 2026-05-06 17:04 | 51.22573 | 3.69890 | 20262 ft | 398 kts | 292° |
| 2026-05-06 17:04 | 51.23688 | 3.65845 | 20941 ft | 399 kts | 292° |
| 2026-05-06 17:05 | 51.24807 | 3.61781 | 21597 ft | 401 kts | 292° |
| 2026-05-06 17:05 | 51.25931 | 3.57684 | 22194 ft | 405 kts | 292° |
| 2026-05-06 17:05 | 51.27065 | 3.53546 | 22763 ft | 408 kts | 292° |
| 2026-05-06 17:05 | 51.28206 | 3.49373 | 23320 ft | 412 kts | 293° |
| 2026-05-06 17:06 | 51.29356 | 3.45173 | 23763 ft | 412 kts | 293° |
| 2026-05-06 17:06 | 51.30503 | 3.40998 | 23895 ft | 408 kts | 292° |
| 2026-05-06 17:06 | 51.31627 | 3.36896 | 23930 ft | 400 kts | 293° |
| 2026-05-06 17:06 | 51.32732 | 3.32837 | 23939 ft | 397 kts | 291° |
| 2026-05-06 17:07 | 51.33829 | 3.28787 | 23931 ft | 396 kts | 291° |
| 2026-05-06 17:07 | 51.34920 | 3.24739 | 23934 ft | 396 kts | 291° |
| 2026-05-06 17:07 | 51.36008 | 3.20699 | 23932 ft | 395 kts | 292° |
| 2026-05-06 17:07 | 51.37095 | 3.16659 | 23934 ft | 395 kts | 290° |
| 2026-05-06 17:08 | 51.38183 | 3.12616 | 23937 ft | 395 kts | 291° |
| 2026-05-06 17:08 | 51.39270 | 3.08577 | 23934 ft | 395 kts | 291° |
| 2026-05-06 17:08 | 51.40356 | 3.04538 | 23947 ft | 395 kts | 292° |
| 2026-05-06 17:08 | 51.41439 | 3.00499 | 23946 ft | 395 kts | 292° |
| 2026-05-06 17:09 | 51.42520 | 2.96460 | 23950 ft | 394 kts | 291° |
| 2026-05-06 17:09 | 51.43598 | 2.92417 | 23946 ft | 394 kts | 291° |
| 2026-05-06 17:09 | 51.44673 | 2.88375 | 23944 ft | 394 kts | 291° |
| 2026-05-06 17:09 | 51.45748 | 2.84331 | 23947 ft | 394 kts | 292° |
| 2026-05-06 17:10 | 51.46822 | 2.80284 | 23948 ft | 394 kts | 291° |
| 2026-05-06 17:10 | 51.47895 | 2.76240 | 23943 ft | 394 kts | 290° |
| 2026-05-06 17:10 | 51.48969 | 2.72192 | 23940 ft | 394 kts | 291° |
| 2026-05-06 17:10 | 51.50042 | 2.68146 | 23948 ft | 394 kts | 291° |
| 2026-05-06 17:11 | 51.51114 | 2.64095 | 23950 ft | 394 kts | 290° |
| 2026-05-06 17:11 | 51.52184 | 2.60046 | 23948 ft | 394 kts | 291° |
| 2026-05-06 17:11 | 51.53249 | 2.55991 | 23949 ft | 394 kts | 290° |
| 2026-05-06 17:11 | 51.54309 | 2.51936 | 23944 ft | 394 kts | 290° |
| 2026-05-06 17:12 | 51.55354 | 2.47867 | 23968 ft | 393 kts | 288° |
| 2026-05-06 17:12 | 51.56317 | 2.43826 | 23974 ft | 392 kts | 289° |
| 2026-05-06 17:12 | 51.57246 | 2.39713 | 23981 ft | 392 kts | 288° |
| 2026-05-06 17:12 | 51.58155 | 2.35589 | 23980 ft | 391 kts | 287° |
| 2026-05-06 17:13 | 51.59062 | 2.31465 | 23979 ft | 391 kts | 288° |
| 2026-05-06 17:13 | 51.59978 | 2.27353 | 23982 ft | 391 kts | 288° |
| 2026-05-06 17:13 | 51.60903 | 2.23245 | 23976 ft | 391 kts | 288° |
| 2026-05-06 17:13 | 51.61829 | 2.19140 | 23981 ft | 390 kts | 287° |
| 2026-05-06 17:14 | 51.62756 | 2.15037 | 23980 ft | 390 kts | 288° |
| 2026-05-06 17:14 | 51.63683 | 2.10944 | 23975 ft | 389 kts | 288° |
| 2026-05-06 17:14 | 51.64614 | 2.06845 | 23975 ft | 390 kts | 289° |
| 2026-05-06 17:14 | 51.65539 | 2.02748 | 23967 ft | 389 kts | 287° |
| 2026-05-06 17:15 | 51.66462 | 1.98650 | 23976 ft | 389 kts | 288° |
| 2026-05-06 17:15 | 51.67382 | 1.94550 | 23967 ft | 389 kts | 288° |
| 2026-05-06 17:15 | 51.68297 | 1.90440 | 23981 ft | 390 kts | 288° |
| 2026-05-06 17:15 | 51.69208 | 1.86332 | 23973 ft | 390 kts | 287° |
| 2026-05-06 17:16 | 51.70119 | 1.82221 | 23977 ft | 389 kts | 288° |
| 2026-05-06 17:16 | 51.71031 | 1.78110 | 23980 ft | 389 kts | 288° |
| 2026-05-06 17:16 | 51.71940 | 1.73997 | 23983 ft | 389 kts | 288° |
| 2026-05-06 17:16 | 51.72849 | 1.69884 | 23972 ft | 390 kts | 287° |
| 2026-05-06 17:17 | 51.73750 | 1.65767 | 23741 ft | 388 kts | 286° |
| 2026-05-06 17:17 | 51.74357 | 1.61556 | 23504 ft | 385 kts | 276° |
| 2026-05-06 17:17 | 51.74489 | 1.57273 | 23227 ft | 381 kts | 265° |
| 2026-05-06 17:17 | 51.74239 | 1.53024 | 22954 ft | 379 kts | 262° |
| 2026-05-06 17:18 | 51.73962 | 1.48833 | 22567 ft | 373 kts | 263° |
| 2026-05-06 17:18 | 51.73695 | 1.44696 | 22119 ft | 369 kts | 263° |
| 2026-05-06 17:18 | 51.73432 | 1.40609 | 21664 ft | 364 kts | 263° |
| 2026-05-06 17:18 | 51.73172 | 1.36570 | 21203 ft | 360 kts | 263° |
| 2026-05-06 17:19 | 51.72912 | 1.32574 | 20749 ft | 356 kts | 263° |
| 2026-05-06 17:19 | 51.72654 | 1.28624 | 20275 ft | 353 kts | 263° |
| 2026-05-06 17:19 | 51.72396 | 1.24709 | 19804 ft | 350 kts | 263° |
| 2026-05-06 17:19 | 51.72138 | 1.20821 | 19314 ft | 347 kts | 263° |
| 2026-05-06 17:20 | 51.71880 | 1.16961 | 18834 ft | 345 kts | 263° |
| 2026-05-06 17:20 | 51.71627 | 1.13174 | 18351 ft | 344 kts | 263° |
| 2026-05-06 17:20 | 51.71364 | 1.09302 | 17814 ft | 342 kts | 263° |
| 2026-05-06 17:20 | 51.71104 | 1.05510 | 17321 ft | 339 kts | 263° |
| 2026-05-06 17:21 | 51.70848 | 1.01804 | 16847 ft | 335 kts | 264° |
| 2026-05-06 17:21 | 51.70594 | 0.98083 | 16363 ft | 333 kts | 264° |
| 2026-05-06 17:21 | 51.70345 | 0.94386 | 15886 ft | 331 kts | 264° |
| 2026-05-06 17:21 | 51.70090 | 0.90651 | 15387 ft | 339 kts | 264° |
| 2026-05-06 17:22 | 51.69828 | 0.86867 | 14866 ft | 339 kts | 264° |
| 2026-05-06 17:22 | 51.69564 | 0.83097 | 14351 ft | 338 kts | 264° |
| 2026-05-06 17:22 | 51.69299 | 0.79345 | 13838 ft | 336 kts | 265° |
| 2026-05-06 17:22 | 51.69033 | 0.75611 | 13285 ft | 334 kts | 264° |
| 2026-05-06 17:23 | 51.68769 | 0.71912 | 12777 ft | 331 kts | 264° |
| 2026-05-06 17:23 | 51.68506 | 0.68236 | 12271 ft | 329 kts | 265° |
| 2026-05-06 17:23 | 51.68244 | 0.64593 | 11772 ft | 326 kts | 264° |
| 2026-05-06 17:23 | 51.67983 | 0.60980 | 11276 ft | 323 kts | 265° |
| 2026-05-06 17:24 | 51.67723 | 0.57428 | 11025 ft | 313 kts | 264° |
| 2026-05-06 17:24 | 51.67474 | 0.54024 | 10898 ft | 300 kts | 264° |
| 2026-05-06 17:24 | 51.67236 | 0.50741 | 10667 ft | 292 kts | 264° |
| 2026-05-06 17:24 | 51.67004 | 0.47519 | 10414 ft | 288 kts | 264° |
| 2026-05-06 17:25 | 51.66771 | 0.44313 | 10125 ft | 288 kts | 265° |
| 2026-05-06 17:25 | 51.66537 | 0.41105 | 9685 ft | 289 kts | 265° |
| 2026-05-06 17:25 | 51.66302 | 0.37892 | 9304 ft | 287 kts | 265° |
| 2026-05-06 17:25 | 51.66068 | 0.34690 | 8853 ft | 287 kts | 264° |
| 2026-05-06 17:26 | 51.65830 | 0.31496 | 8407 ft | 288 kts | 264° |
| 2026-05-06 17:26 | 51.65591 | 0.28321 | 8005 ft | 286 kts | 263° |
| 2026-05-06 17:26 | 51.65351 | 0.25147 | 7578 ft | 283 kts | 263° |
| 2026-05-06 17:26 | 51.65114 | 0.22021 | 7238 ft | 276 kts | 263° |
| 2026-05-06 17:27 | 51.64888 | 0.19005 | 7112 ft | 267 kts | 264° |
| 2026-05-06 17:27 | 51.64672 | 0.16088 | 6985 ft | 258 kts | 263° |
| 2026-05-06 17:27 | 51.64474 | 0.13274 | 6849 ft | 251 kts | 264° |
| 2026-05-06 17:27 | 51.64315 | 0.10513 | 6752 ft | 246 kts | 265° |
| 2026-05-06 17:28 | 51.64171 | 0.07794 | 6702 ft | 245 kts | 265° |
| 2026-05-06 17:28 | 51.64030 | 0.05062 | 6636 ft | 245 kts | 265° |
| 2026-05-06 17:28 | 51.63888 | 0.02348 | 6545 ft | 244 kts | 265° |
| 2026-05-06 17:28 | 51.63743 | -0.00351 | 6512 ft | 243 kts | 265° |
| 2026-05-06 17:29 | 51.63598 | -0.02998 | 6397 ft | 240 kts | 267° |
| 2026-05-06 17:29 | 51.63462 | -0.05417 | 6304 ft | 239 kts | 266° |
| 2026-05-06 17:29 | 51.63311 | -0.08072 | 6210 ft | 238 kts | 267° |
| 2026-05-06 17:29 | 51.63163 | -0.10682 | 6119 ft | 237 kts | 267° |
| 2026-05-06 17:30 | 51.63015 | -0.13306 | 6024 ft | 237 kts | 266° |
| 2026-05-06 17:30 | 51.62868 | -0.15934 | 5935 ft | 237 kts | 266° |
| 2026-05-06 17:30 | 51.62719 | -0.18576 | 5842 ft | 237 kts | 267° |
| 2026-05-06 17:30 | 51.62569 | -0.21215 | 5749 ft | 237 kts | 266° |
| 2026-05-06 17:31 | 51.62417 | -0.23849 | 5655 ft | 236 kts | 266° |
| 2026-05-06 17:31 | 51.62265 | -0.26473 | 5557 ft | 236 kts | 266° |
| 2026-05-06 17:31 | 51.62111 | -0.29097 | 5468 ft | 235 kts | 266° |
| 2026-05-06 17:31 | 51.61958 | -0.31710 | 5372 ft | 235 kts | 266° |
| 2026-05-06 17:32 | 51.61802 | -0.34335 | 5226 ft | 235 kts | 266° |
| 2026-05-06 17:32 | 51.61649 | -0.36948 | 5131 ft | 235 kts | 267° |
| 2026-05-06 17:32 | 51.61496 | -0.39560 | 5038 ft | 235 kts | 267° |
| 2026-05-06 17:32 | 51.61336 | -0.42198 | 4947 ft | 249 kts | 264° |
| 2026-05-06 17:33 | 51.60801 | -0.44908 | 4819 ft | 264 kts | 248° |
| 2026-05-06 17:33 | 51.60035 | -0.47599 | 4531 ft | 265 kts | 246° |
| 2026-05-06 17:33 | 51.59263 | -0.50261 | 4385 ft | 260 kts | 245° |
| 2026-05-06 17:33 | 51.58495 | -0.52855 | 4250 ft | 254 kts | 245° |
| 2026-05-06 17:34 | 51.57737 | -0.55388 | 4122 ft | 246 kts | 246° |
| 2026-05-06 17:34 | 51.57001 | -0.57808 | 4015 ft | 236 kts | 246° |
| 2026-05-06 17:34 | 51.56295 | -0.60107 | 4004 ft | 224 kts | 245° |
| 2026-05-06 17:34 | 51.55608 | -0.62345 | 4007 ft | 223 kts | 244° |
| 2026-05-06 17:35 | 51.54926 | -0.64570 | 4005 ft | 222 kts | 246° |
| 2026-05-06 17:35 | 51.54257 | -0.66798 | 4008 ft | 221 kts | 246° |
| 2026-05-06 17:35 | 51.53580 | -0.69019 | 4008 ft | 222 kts | 246° |
| 2026-05-06 17:36 | 51.52442 | -0.72707 | 4011 ft | 222 kts | 246° |
| 2026-05-06 17:36 | 51.51747 | -0.74912 | 4010 ft | 223 kts | 246° |
| 2026-05-06 17:36 | 51.51063 | -0.77101 | 4010 ft | 222 kts | 245° |
| 2026-05-06 17:36 | 51.50236 | -0.79196 | 4003 ft | 226 kts | 225° |
| 2026-05-06 17:37 | 51.48853 | -0.80345 | 4009 ft | 227 kts | 192° |
| 2026-05-06 17:37 | 51.47285 | -0.80235 | 4009 ft | 227 kts | 162° |
| 2026-05-06 17:37 | 51.46041 | -0.78781 | 3794 ft | 222 kts | 118° |
| 2026-05-06 17:37 | 51.45745 | -0.76456 | 3565 ft | 211 kts | 75° |
| 2026-05-06 17:38 | 51.46383 | -0.74430 | 3315 ft | 201 kts | 53° |
| 2026-05-06 17:38 | 51.47092 | -0.72520 | 3105 ft | 196 kts | 59° |
| 2026-05-06 17:38 | 51.47486 | -0.70479 | 2842 ft | 190 kts | 78° |
| 2026-05-06 17:38 | 51.47608 | -0.68418 | 2595 ft | 182 kts | 83° |
| 2026-05-06 17:39 | 51.47645 | -0.66500 | 2368 ft | 161 kts | 84° |
| 2026-05-06 17:39 | 51.47662 | -0.64802 | 2150 ft | 144 kts | 84° |
| 2026-05-06 17:39 | 51.47673 | -0.63275 | 1959 ft | 131 kts | 83° |
| 2026-05-06 17:39 | 51.47683 | -0.61831 | 1785 ft | 129 kts | 85° |
| 2026-05-06 17:40 | 51.47691 | -0.60400 | 1612 ft | 128 kts | 83° |
| 2026-05-06 17:40 | 51.47699 | -0.58978 | 1438 ft | 127 kts | 85° |
| 2026-05-06 17:40 | 51.47706 | -0.57576 | 1269 ft | 125 kts | 84° |
| 2026-05-06 17:40 | 51.47714 | -0.56187 | 1094 ft | 126 kts | 84° |
| 2026-05-06 17:41 | 51.47722 | -0.54790 | 904 ft | 124 kts | 84° |
| 2026-05-06 17:41 | 51.47746 | -0.53401 | 702 ft | 124 kts | 85° |
| 2026-05-06 17:41 | 51.47747 | -0.52036 | 526 ft | 124 kts | 85° |
| 2026-05-06 17:41 | 51.47748 | -0.50690 | 405 ft | 124 kts | 83° |
| 2026-05-06 17:42 | 51.47745 | -0.49357 | 216 ft | 122 kts | 84° |
| 2026-05-06 17:42 | 51.47756 | -0.48032 | 109 ft | 109 kts | 85° |
| 2026-05-06 17:42 | 51.47771 | -0.47000 | 92 ft | 72 kts | 90° |
| 2026-05-06 17:42 | 51.47762 | -0.46420 | 91 ft | 38 kts | 91° |
| 2026-05-06 17:43 | 51.47703 | -0.46145 | 86 ft | 12 kts | 140° |
| 2026-05-06 17:43 | 51.47661 | -0.46094 | 87 ft | 9 kts | 144° |
| 2026-05-06 17:43 | 51.47659 | -0.46091 | 87 ft | 0 kts | 144° |
| 2026-05-06 17:43 | 51.47653 | -0.46084 | 88 ft | 0 kts | 144° |
| 2026-05-06 17:44 | 51.47645 | -0.46075 | 87 ft | 0 kts | 144° |
| 2026-05-06 17:44 | 51.47641 | -0.46070 | 85 ft | 0 kts | 143° |
| 2026-05-06 17:44 | 51.47640 | -0.46069 | 85 ft | 1 kts | 143° |
| 2026-05-06 17:44 | 51.47634 | -0.46062 | 86 ft | 3 kts | 143° |
| 2026-05-06 17:45 | 51.47604 | -0.46054 | 86 ft | 5 kts | 191° |
| 2026-05-06 17:45 | 51.47557 | -0.46081 | 88 ft | 10 kts | 200° |
| 2026-05-06 17:45 | 51.47529 | -0.46098 | 87 ft | 3 kts | 201° |
| 2026-05-06 17:45 | 51.47514 | -0.46146 | 86 ft | 7 kts | 263° |
| 2026-05-06 17:46 | 51.47511 | -0.46261 | 87 ft | 13 kts | 274° |
| 2026-05-06 17:46 | 51.47515 | -0.46434 | 85 ft | 19 kts | 269° |
| 2026-05-06 17:46 | 51.47512 | -0.46636 | 87 ft | 19 kts | 269° |
| 2026-05-06 17:46 | 51.47492 | -0.46880 | 85 ft | 25 kts | 269° |
| 2026-05-06 17:47 | 51.47491 | -0.47157 | 85 ft | 26 kts | 270° |
| 2026-05-06 17:47 | 51.47490 | -0.47412 | 85 ft | 26 kts | 269° |
| 2026-05-06 17:47 | 51.47488 | -0.47685 | 85 ft | 25 kts | 270° |
| 2026-05-06 17:47 | 51.47488 | -0.47944 | 86 ft | 21 kts | 270° |
| 2026-05-06 17:48 | 51.47488 | -0.48029 | 85 ft | 1 kts | 270° |
| 2026-05-06 17:48 | 51.47488 | -0.48167 | 85 ft | 19 kts | 269° |
| 2026-05-06 17:48 | 51.47478 | -0.48336 | 88 ft | 13 kts | 235° |
| 2026-05-06 17:48 | 51.47374 | -0.48357 | 87 ft | 18 kts | 178° |
| 2026-05-06 17:49 | 51.47229 | -0.48355 | 85 ft | 24 kts | 179° |
| 2026-05-06 17:49 | 51.47058 | -0.48351 | 87 ft | 24 kts | 180° |
| 2026-05-06 17:49 | 51.46940 | -0.48353 | 85 ft | 13 kts | 180° |
| 2026-05-06 17:49 | 51.46880 | -0.48397 | 85 ft | 12 kts | 252° |
| 2026-05-06 17:50 | 51.46877 | -0.48540 | 87 ft | 10 kts | 272° |
| 2026-05-06 17:50 | 51.46875 | -0.48644 | 87 ft | 5 kts | 269° |
| 2026-05-06 17:50 | 51.46874 | -0.48722 | 85 ft | 10 kts | 268° |
| 2026-05-06 17:50 | 51.46889 | -0.48790 | 86 ft | 3 kts | 327° |
| 2026-05-06 17:51 | 51.46911 | -0.48788 | 85 ft | 5 kts | 2° |
| 2026-05-06 17:51 | 51.46930 | -0.48789 | 85 ft | 1 kts | 359° |